Mason Valley Wildlife Refuge, Nevada Weather observations

Data are for 10 minute period ending at time listed.
 Day   Time   Solar   Ave.   Ave.  Ave.  Vector  Max.   Baro.   Total    
  of    of     Rad.   Air    Rel.  Wind   Wind   Wind  Press.  Precip.   
Year   Day            Temp.  Hum.  Speed  Dir.   Gust                    
2014   (PST)  Kw/m2    F      %     mph   deg.    mph    mb.     in.     
-------------------------------------------------------------------------
 272    4:50   0.00   41.7    92    0.3   326     1.0   867.9    0.00 
 272    5:00   0.00   40.6    92    2.3     2     3.6   867.9    0.00 
 272    5:10   0.00   40.2    93    2.1   342     4.5   868.0    0.00 
 272    5:20   0.00   40.1    93    0.5    32     1.7   868.0    0.00 
 272    5:30   0.00   40.6    93    2.6     2     3.8   868.0    0.00 
 272    5:40   0.00   40.9    93    2.7   318     4.3   868.1    0.00 
 272    5:50   100.00  99999.0   99999  99999.0   99999   99999.0   99999.0   99999.00 
 272    6:00   100.00  99999.0   99999  99999.0   99999   99999.0   99999.0   99999.00 
 272    6:10   100.00  99999.0   99999  99999.0   99999   99999.0   99999.0   99999.00 
 272    6:20   100.00  99999.0   99999  99999.0   99999   99999.0   99999.0   99999.00 
 272    6:30   100.00  99999.0   99999  99999.0   99999   99999.0   99999.0   99999.00 
 272    6:40   100.00  99999.0   99999  99999.0   99999   99999.0   99999.0   99999.00 
 272    6:50   0.04   41.6    93    2.3   230     3.9   868.5    0.00 
 272    7:00   0.03   41.6    92    2.0   182     2.8   868.5    0.00 
 272    7:10   0.06   41.6    93    0.6   208     2.1   868.7    0.00 
 272    7:20   0.17   42.5    93    0.7     2     3.9   868.8    0.00 
 272    7:30   0.19   44.8    91    4.7   149     7.3   868.7    0.00 
 272    7:40   100.00  99999.0   99999  99999.0   99999   99999.0   99999.0   99999.00 
 272    7:50   0.21   45.2    89    4.4   171     6.4   868.7    0.00 
 272    8:00   0.20   46.3    88    2.6   192     4.6   868.9    0.00 
 272    8:10   0.26   47.9    85    0.6   203     2.3   869.0    0.00 
 272    8:20   0.26   49.1    81    1.1   205     2.6   869.2    0.00 
 272    8:30   0.34   50.4    79    1.6   216     3.2   869.2    0.00 
 272    8:40   0.37   50.8    77    1.4   204     3.4   869.3    0.00 
 272    8:50   0.42   52.3    73    1.7   193     3.2   869.3    0.00 
 272    9:00   0.56   53.4    71    2.2   198     4.0   869.4    0.00 
 272    9:10   0.51   54.2    69    3.1   175     5.2   869.4    0.00 
 272    9:20   0.63   54.9    68    3.6   189     7.2   869.3    0.00 
 272    9:30   0.54   55.8    65    4.0   171     8.6   869.4    0.00 
 272    9:40   0.64   56.3    63    4.7   206     7.4   869.4    0.00 
 272    9:50   0.67   57.5    60    4.2   192     8.0   869.4    0.00 
 272   10:00   0.68   57.8    59    3.4   203     6.7   869.4    0.00 
 272   10:10   0.70   58.5    57    3.1   190     6.4   869.3    0.00 
 272   10:20   0.72   59.8    55    2.6   148     8.4   869.2    0.00 
 272   10:30   0.73   60.4    54    3.1   225     5.5   869.2    0.00 
 272   10:40   0.75   60.9    54    1.4   288     4.2   869.1    0.00 
 272   10:50   0.76   60.8    49    2.5   186     4.9   868.9    0.00 
 272   11:00   0.78   62.3    50    2.6   178     5.6   868.7    0.00 
 272   11:10   0.79   62.4    50    3.5   170     6.4   868.6    0.00 
 272   11:20   0.80   62.4    49    3.8   200     8.7   868.5    0.00 
 272   11:30   0.80   62.7    47    3.7   225     7.7   868.6    0.00 
 272   11:40   0.81   63.5    45    2.3   152     5.6   868.6    0.00 
 272   11:50   0.81   64.6    45    2.6   217     4.9   868.5    0.00 
 272   12:00   0.81   64.7    46    3.0   157     6.8   868.5    0.00 
 272   12:10   0.81   65.7    40    1.3   102     4.5   868.4    0.00 
 272   12:20   0.81   65.4    42    3.5   173     6.2   868.4    0.00 
 272   12:30   0.81   65.9    42    1.7   216     3.8   868.3    0.00 
 272   12:40   0.80   66.0    42    2.6   296     5.9   868.2    0.00 
 272   12:50   0.79   66.1    42    2.5   136     6.2   868.0    0.00 
 272   13:00   0.78   67.1    42    1.5   170     4.5   867.9    0.00 
 272   13:10   0.77   68.6    38    1.9   287     4.2   867.8    0.00 
 272   13:20   0.76   68.2    40    1.2     6     3.3   867.7    0.00 
 272   13:30   0.74   67.9    41    2.4   158     5.6   867.5    0.00 
 272   13:40   0.73   68.3    43    2.3   162     5.3   867.5    0.00 
 272   13:50   0.71   68.2    41    2.0   190     4.9   867.4    0.00 
 272   14:00   0.69   69.0    40    2.5   260     7.8   867.4    0.00 
 272   14:10   0.67   68.0    42    4.8   233     7.8   867.3    0.00 
 272   14:20   0.65   68.7    44    4.3   265     9.3   867.2    0.00 
 272   14:30   0.62   68.7    43    4.3   248     9.9   867.2    0.00 
 272   14:40   0.59   68.8    41    4.0   245     7.6   867.1    0.00 
 272   14:50   0.56   68.8    43    4.0   221     6.6   867.1    0.00 
 272   15:00   0.53   68.7    45    5.3   217     7.7   866.9    0.00 
 272   15:10   0.50   69.4    42    2.8   212     7.4   866.9    0.00 
 272   15:20   0.47   70.3    39    2.0   213     4.2   866.9    0.00 
 272   15:30   0.44   70.4    38    2.4   210     4.3   866.9    0.00 
 272   15:40   0.41   69.7    41    4.1   118     7.4   866.9    0.00 
 272   15:50   0.37   69.3    40    2.8    93     7.4   866.9    0.00 
 272   16:00   0.34   70.2    38    1.5   159     3.3   866.9    0.00 
 272   16:10   0.30   69.9    42    2.4   151     3.9   866.8    0.00 
 272   16:20   0.25   68.7    43    3.2   113     6.1   866.9    0.00 
 272   16:30   0.22   68.9    40    2.6    79     4.5   866.9    0.00 
 272   16:40   0.20   67.7    42    5.2    89     8.6   866.9    0.00 
 272   16:50   0.17   67.2    43    4.1    82     6.7   867.0    0.00 
 272   17:00   0.13   66.7    43    3.9    80     6.3   867.1    0.00 
 272   17:10   0.10   66.2    44    3.6    87     5.5   867.0    0.00 
 272   17:20   0.08   66.4    44    2.8    92     4.0   867.1    0.00 
 272   17:30   0.02   65.9    45    1.2    89     2.6   867.1    0.00 
 272   17:40   0.01   63.8    49    2.2    87     5.5   867.2    0.00 
 272   17:50   0.00   62.9    51    3.5    91     5.5   867.2    0.00 
 272   18:00   0.00   62.1    53    3.8    88     5.0   867.3    0.00 
 272   18:10   0.00   61.8    54    2.7    90     4.0   867.3    0.00 
 272   18:20   0.00   60.9    56    3.1    86     4.0   867.3    0.00 
 272   18:30   0.00   60.0    58    2.1    84     3.6   867.4    0.00 
 272   18:40   0.00   58.0    63    1.7   129     4.2   867.5    0.00 
 272   18:50   0.00   57.0    67    2.2   157     3.6   867.4    0.00 
 272   19:00   0.00   55.5    71    3.1   196     3.5   867.6    0.00 
 272   19:10   0.00   55.8    68    1.4   173     3.5   867.7    0.00 
 272   19:20   0.00   54.8    72    0.7    11     1.9   867.7    0.00 
 272   19:30   0.00   56.9    67    0.7   341     1.4   867.8    0.00 
 272   19:40   0.00   56.6    66    0.0     0     0.0   867.8    0.00 
 272   19:50   0.00   55.1    70    1.1   339     2.8   867.9    0.00 
 272   20:00   0.00   52.3    78    2.1   335     3.4   867.8    0.00 
 272   20:10   0.00   51.3    81    1.8   252     2.6   867.8    0.00 
 272   20:20   0.00   52.5    80    2.5   272     3.4   867.9    0.00 
 272   20:30   0.00   51.5    80    1.6   239     3.1   867.9    0.00 
 272   20:40   0.00   53.5    76    0.4   264     1.3   867.9    0.00 
 272   20:50   0.00   51.7    77    0.8   309     1.9   868.0    0.00 
 272   21:00   0.00   50.1    82    0.7   296     1.8   868.0    0.00 
 272   21:10   0.00   49.4    84    0.6   302     1.1   867.9    0.00 
 272   21:20   0.00   47.5    86    3.1   220     7.0   868.0    0.00 
 272   21:30   0.00   48.1    88    1.3   262     2.7   867.9    0.00 
 272   21:40   0.00   48.3    87    0.7   189     1.8   867.9    0.00 
 272   21:50   0.00   48.3    88    1.5   196     2.0   868.0    0.00 
 272   22:00   0.00   49.2    88    1.7   264     2.6   868.0    0.00 
 272   22:10   0.00   48.9    85    1.5   167     2.9   868.0    0.00 
 272   22:20   0.00   47.7    89    2.2   164     3.1   868.0    0.00 
 272   22:30   0.00   46.9    90    1.4   174     2.9   868.0    0.00 
 272   22:40   0.00   46.8    91    0.0     0     0.0   868.0    0.00 
 272   22:50   0.00   46.4    91    0.4   139     0.9   868.0    0.00 
 272   23:00   0.00   46.8    91    0.0     0     0.0   868.0    0.00 
 272   23:10   0.00   45.4    90    1.5    97     2.5   867.9    0.00 
 272   23:20   0.00   44.5    91    1.4   131     2.1   867.7    0.00 
 272   23:30   0.00   44.5    92    1.1   128     2.3   867.7    0.00 
 272   23:40   0.00   45.1    93    1.2   105     2.7   867.7    0.00 
 272   23:50   0.00   45.0    92    1.7    69     2.5   867.6    0.00 
 273    0:00   0.00   44.6    92    0.6   179     1.6   867.5    0.00 
 273    0:10   0.00   45.0    93    1.3   224     2.3   867.4    0.00 
 273    0:20   0.00   45.1    93    0.0   176     0.5   867.4    0.00 
 273    0:30   0.00   45.1    93    0.4   199     1.7   867.4    0.00 
 273    0:40   0.00   45.8    92    2.2   199     3.4   867.4    0.00 
 273    0:50   0.00   46.8    91    2.3   206     3.5   867.3    0.00 
 273    1:00   0.00   50.0    82    1.4   209     2.1   867.2    0.00 
 273    1:10   0.00   49.6    78    4.0   229     5.6   867.2    0.00 
 273    1:20   0.00   48.5    79    1.9   218     4.7   867.2    0.00 
 273    1:30   0.00   46.2    83    1.9     2     2.9   867.2    0.00 
 273    1:40   0.00   45.0    89    2.4     7     3.4   867.2    0.00 
 273    1:50   0.00   44.3    89    1.4    21     2.6   867.2    0.00 
 273    2:00   0.00   44.9    91    1.1   329     2.5   867.2    0.00 
 273    2:10   0.00   43.6    91    0.5   157     1.7   867.2    0.00 
 273    2:20   0.00   42.9    92    2.2   199     3.3   867.0    0.00 
 273    2:30   0.00   42.3    92    0.9   184     1.9   866.9    0.00 
 273    2:40   0.00   42.3    93    1.6   156     2.9   866.9    0.00 
 273    2:50   0.00   41.9    94    2.1   162     3.0   866.9    0.00 
 273    3:00   0.00   41.4    94    1.2   162     5.3   867.0    0.00 
 273    3:10   0.00   41.4    94    1.9   286     5.0   866.9    0.00 
 273    3:20   0.00   41.5    94    0.9   143     2.6   866.7    0.00 
 273    3:30   0.00   40.6    94    1.5   227     3.1   866.9    0.00 
 273    3:40   0.00   40.2    94    0.6   269     2.5   866.9    0.00 
 273    3:50   0.00   39.7    95    1.2   133     2.7   866.9    0.00 
 273    4:00   0.00   39.9    95    2.2   154     3.9   866.8    0.00 
 273    4:10   0.00   38.8    95    1.1   101     2.6   866.9    0.00 
 273    4:20   0.00   38.8    96    0.9   245     2.3   866.9    0.00 
 273    4:30   0.00   41.4    96    0.3   242     1.8   866.8    0.00 
 273    4:40   0.00   42.3    95    2.0   204     2.8   866.8    0.00 

Return to Mason Valley Wildlife Refuge graphs page.


Western Regional Climate Center,wrcc@dri.edu